General Mitchell International Airport
KMKE : now visible

Airfield :











YOU CAN JOIN US ON...

 
LOGIN :

Register | Disclaimer

   EN    FR    IT 

 









Legend :    VFR   Marginal VFR   IFR   Intensive IFR   Very Intensive IFR
Visi :
Ceiling :
>= 8 km
>= 3000ft
5 to 8 km
1000 to 3000 ft
1500m to 5 km
500 to 1000 ft
800 to 1500m
200 to 500 ft
< 800m
< 200 ft
Symbols :   Thunderstorms  Fog  Heavy snow  Heavy precipitations  Wind > 20 kt






- Airport Elevation : 723 ft
- IATA code : MKE


KMKE - General Mitchell International

CURRENT METAR :
  • 231352Z 33013G23KT 10SM SCT021 M11/M18 A2998 RMK AO2 SLP166 T11111178

EXPIRED METARs :
  • 231252Z 34012G20KT 9SM SCT019 BKN095 M11/M16 A2996 RMK AO2 SNE48 SLP158 P0000 T11111161
  • 231159Z 35012G22KT 1 1/2SM -SN BKN015 BKN110 M10/M14 A2993 RMK AO2 SFC VIS 7 P0000 T11001144
  • 231152Z 34010KT 1 1/2SM -SN SCT015 BKN110 M10/M14 A2992 RMK AO2 SFC VIS 6 SLP144 4/002 P0001 60007 70012 T11001139 11072 21100 53008

TAF KMKE
Valid from the 23 at 12:00 until the 24 at 18:00 UTC


231145Z 2312/2418 34011KT P6SM BKN030
FM231300 35011KT P6SM SCT060
FM232000 31009KT P6SM FEW120
FM240200 24005KT P6SM BKN150
FM240700 22008KT 4SM -SN BR OVC035
FM241000 21008KT 2SM -SN BR OVC023
FM241500 25007KT P6SM OVC018
KZAU FIR / North America



MET'MAP, your aeronautical weather chart ! - Copyright ORBIFLY December 2007 - Disclaimer

ORBIFLY MET'MAP TEAM :

Programming & Development : Alexandra Zaïnal
Concept & original design : Baudouin d'Aumeries
Assistance for programming : Marc-Olivier Méhu
Technical & hardware support : Manuel Goepfert

Contact : metmap@orbifly.com




SOURCES & CREDITS :

   NOAA       Earth
Advisory